Time;durP1;ratioP1;P1;durP2;ratioP2;P2;SDS_P1;SDS_P2;PMS_P1;PMS_P2;Temp;Humidity;BMP_temperature;BMP_pressure;BME280_temperature;BME280_humidity;BME280_pressure;Samples;Min_cycle;Max_cycle;Signal;HPM_P1;HPM_P2
2021/04/26 00:01:39;;;;;;;1.50;1.27;;;5.60;90.00;;;;;;5045324;28;20879;-83
2021/04/26 00:04:05;;;;;;;1.53;1.30;;;5.60;89.80;;;;;;5048634;28;20466;-83
2021/04/26 00:06:31;;;;;;;1.50;1.30;;;5.60;90.40;;;;;;5046270;28;20458;-83
2021/04/26 00:09:00;;;;;;;1.50;1.30;;;5.60;90.40;;;;;;5050089;28;20495;-82
2021/04/26 00:11:26;;;;;;;1.60;1.50;;;5.60;90.40;;;;;;5056897;28;20465;-83
2021/04/26 00:13:53;;;;;;;1.50;1.30;;;5.50;90.80;;;;;;5058340;28;20468;-83
2021/04/26 00:16:20;;;;;;;1.50;1.30;;;5.50;90.20;;;;;;5053402;28;20467;-83
2021/04/26 00:18:46;;;;;;;1.50;1.30;;;5.50;91.40;;;;;;5044576;28;20459;-83
2021/04/26 00:21:12;;;;;;;1.53;1.30;;;5.50;91.00;;;;;;5047098;28;20467;-82
2021/04/26 00:23:39;;;;;;;1.50;1.30;;;5.50;91.00;;;;;;5055353;28;20508;-83
2021/04/26 00:26:05;;;;;;;1.50;1.30;;;5.40;90.70;;;;;;5049694;28;20455;-83
2021/04/26 00:28:31;;;;;;;1.57;1.40;;;5.40;91.20;;;;;;5052986;28;20467;-84
2021/04/26 00:30:58;;;;;;;1.57;1.30;;;5.40;91.10;;;;;;5063199;28;20478;-83
2021/04/26 00:33:24;;;;;;;1.50;1.30;;;5.30;91.00;;;;;;5056897;28;20636;-83
2021/04/26 00:35:51;;;;;;;1.57;1.30;;;5.30;91.00;;;;;;5050610;28;20474;-83
2021/04/26 00:38:17;;;;;;;1.53;1.40;;;5.30;90.80;;;;;;5047346;28;20462;-83
2021/04/26 00:40:43;;;;;;;1.50;1.30;;;5.20;91.60;;;;;;5053475;28;20482;-83
2021/04/26 00:43:10;;;;;;;1.60;1.40;;;5.20;91.80;;;;;;5051033;28;20650;-83
2021/04/26 00:45:36;;;;;;;1.53;1.40;;;5.20;92.00;;;;;;5052987;28;20500;-82
2021/04/26 00:48:03;;;;;;;1.53;1.30;;;5.20;91.50;;;;;;5048294;28;20542;-83
2021/04/26 00:50:31;;;;;;;1.53;1.30;;;5.10;91.80;;;;;;5056509;28;20482;-83
2021/04/26 00:52:59;;;;;;;1.50;1.30;;;5.10;92.20;;;;;;5053121;28;20463;-83
2021/04/26 00:55:28;;;;;;;1.60;1.40;;;5.10;91.90;;;;;;5058560;28;20480;-83
2021/04/26 00:57:54;;;;;;;1.50;1.27;;;5.10;92.10;;;;;;5054955;28;20538;-83
2021/04/26 01:00:22;;;;;;;1.50;1.40;;;5.00;92.40;;;;;;5053297;28;20766;-83
2021/04/26 01:02:48;;;;;;;1.53;1.40;;;5.00;92.50;;;;;;5049763;28;20549;-82
2021/04/26 01:05:19;;;;;;;1.57;1.30;;;5.00;92.10;;;;;;5049716;28;20476;-83
2021/04/26 01:07:46;;;;;;;1.53;1.40;;;5.00;92.80;;;;;;5051313;28;20458;-82
2021/04/26 01:10:16;;;;;;;1.50;1.30;;;4.90;92.90;;;;;;5047967;28;20731;-83
2021/04/26 01:12:54;;;;;;;1.57;1.40;;;4.90;92.50;;;;;;5059467;28;20813;-83
2021/04/26 01:15:25;;;;;;;1.60;1.40;;;4.90;93.70;;;;;;5058030;28;20450;-83
2021/04/26 01:17:57;;;;;;;1.50;1.30;;;4.90;93.50;;;;;;5057763;28;20466;-83
2021/04/26 01:21:02;;;;;;;1.60;1.50;;;4.90;93.50;;;;;;5050181;28;20483;-83
2021/04/26 01:24:07;;;;;;;1.60;1.40;;;4.90;93.40;;;;;;5053190;28;20568;-83
2021/04/26 01:26:40;;;;;;;1.57;1.40;;;4.90;94.00;;;;;;5032772;28;20463;-83
2021/04/26 01:29:17;;;;;;;1.53;1.40;;;4.80;93.80;;;;;;5045370;28;20494;-83
2021/04/26 01:32:04;;;;;;;1.57;1.30;;;4.80;94.10;;;;;;5051485;28;20447;-82
2021/04/26 01:34:31;;;;;;;1.60;1.40;;;4.80;94.20;;;;;;5051762;28;20455;-83
2021/04/26 01:36:57;;;;;;;1.50;1.30;;;4.80;94.40;;;;;;5049898;28;20467;-83
2021/04/26 01:39:25;;;;;;;1.53;1.40;;;4.80;94.70;;;;;;5037672;28;20479;-83
2021/04/26 01:41:53;;;;;;;1.50;1.30;;;4.80;94.90;;;;;;5049436;28;20540;-83
2021/04/26 01:44:21;;;;;;;1.60;1.40;;;4.70;93.70;;;;;;5048297;28;20459;-84
2021/04/26 01:46:48;;;;;;;1.50;1.30;;;4.70;92.50;;;;;;5045778;28;20519;-83
2021/04/26 01:49:17;;;;;;;1.50;1.40;;;4.70;93.70;;;;;;5053052;28;20494;-83
2021/04/26 01:51:44;;;;;;;1.50;1.33;;;4.70;94.30;;;;;;5046274;28;20459;-83
2021/04/26 01:54:11;;;;;;;1.50;1.40;;;4.60;93.80;;;;;;5035671;28;20462;-83
2021/04/26 01:56:38;;;;;;;1.50;1.40;;;4.70;93.90;;;;;;5050860;28;20984;-83
2021/04/26 01:59:06;;;;;;;1.50;1.30;;;4.60;93.70;;;;;;5053541;28;20470;-83
2021/04/26 02:01:33;;;;;;;1.53;1.40;;;4.60;94.20;;;;;;5048973;28;20459;-83
2021/04/26 02:04:02;;;;;;;1.50;1.30;;;4.60;94.10;;;;;;5045958;28;20908;-83
2021/04/26 02:06:31;;;;;;;1.60;1.40;;;4.50;93.70;;;;;;5054171;28;20469;-83
2021/04/26 02:08:58;;;;;;;1.53;1.40;;;4.50;94.00;;;;;;5050386;28;20483;-83
2021/04/26 02:11:25;;;;;;;1.53;1.30;;;4.50;94.50;;;;;;5052314;28;20467;-83
2021/04/26 02:13:54;;;;;;;1.50;1.30;;;4.40;94.60;;;;;;5054311;28;20468;-83
2021/04/26 02:16:21;;;;;;;1.60;1.40;;;4.40;94.30;;;;;;5050840;28;20803;-82
2021/04/26 02:18:47;;;;;;;1.50;1.30;;;4.40;94.70;;;;;;5049151;28;20470;-83
2021/04/26 02:21:13;;;;;;;1.50;1.20;;;4.40;94.30;;;;;;5047738;28;20491;-83
2021/04/26 02:23:41;;;;;;;1.50;1.30;;;4.40;94.00;;;;;;5050310;28;20513;-83
2021/04/26 02:26:07;;;;;;;1.50;1.30;;;4.30;94.20;;;;;;5051528;28;20469;-83
2021/04/26 02:28:33;;;;;;;1.57;1.40;;;4.30;93.90;;;;;;5051965;28;20482;-83
2021/04/26 02:31:01;;;;;;;1.50;1.40;;;4.30;93.30;;;;;;5051013;28;20729;-83
2021/04/26 02:33:33;;;;;;;1.50;1.30;;;4.30;94.10;;;;;;5046218;28;20490;-83
2021/04/26 02:36:03;;;;;;;1.57;1.37;;;4.20;94.70;;;;;;5049774;28;20513;-83
2021/04/26 02:38:33;;;;;;;1.50;1.40;;;4.20;93.70;;;;;;5050130;28;20450;-83
2021/04/26 02:41:06;;;;;;;1.57;1.40;;;4.20;94.40;;;;;;5056555;28;20486;-83
2021/04/26 02:43:37;;;;;;;1.50;1.33;;;4.10;94.90;;;;;;5055427;28;20489;-83
2021/04/26 02:46:05;;;;;;;1.60;1.40;;;4.10;94.70;;;;;;5057830;28;20530;-83
2021/04/26 02:48:33;;;;;;;1.50;1.30;;;4.10;95.00;;;;;;5057726;28;20467;-83
2021/04/26 02:51:00;;;;;;;1.60;1.40;;;4.10;95.40;;;;;;5054778;28;20478;-84
2021/04/26 02:53:29;;;;;;;1.60;1.50;;;4.00;95.20;;;;;;5054894;28;20454;-83
2021/04/26 02:55:59;;;;;;;1.60;1.50;;;4.00;95.70;;;;;;5051018;28;20463;-83
2021/04/26 02:58:28;;;;;;;1.60;1.47;;;4.00;95.40;;;;;;5055788;28;20477;-82
2021/04/26 03:00:55;;;;;;;1.53;1.40;;;4.00;95.20;;;;;;5048673;28;20635;-83
2021/04/26 03:03:22;;;;;;;1.50;1.30;;;4.00;95.30;;;;;;5047704;28;20477;-82
2021/04/26 03:05:50;;;;;;;1.50;1.30;;;4.00;95.50;;;;;;5050669;28;20476;-83
2021/04/26 03:08:16;;;;;;;1.60;1.50;;;3.90;95.20;;;;;;5053861;28;20458;-82
2021/04/26 03:10:44;;;;;;;1.57;1.40;;;3.90;94.90;;;;;;5059341;28;20523;-83
2021/04/26 03:13:10;;;;;;;1.50;1.40;;;3.90;95.30;;;;;;5053746;28;20838;-83
2021/04/26 03:15:38;;;;;;;1.50;1.30;;;3.90;95.50;;;;;;5056645;28;20454;-83
2021/04/26 03:18:05;;;;;;;1.53;1.40;;;3.80;94.30;;;;;;5054178;28;20462;-82
2021/04/26 03:20:31;;;;;;;1.50;1.40;;;3.80;93.60;;;;;;5057581;28;20493;-84
2021/04/26 03:22:59;;;;;;;1.53;1.40;;;3.80;93.70;;;;;;5055358;28;20495;-82
2021/04/26 03:25:26;;;;;;;1.53;1.40;;;3.70;94.40;;;;;;5060739;28;20485;-82
2021/04/26 03:27:57;;;;;;;1.60;1.40;;;3.70;94.20;;;;;;5050759;28;20488;-82
2021/04/26 03:30:25;;;;;;;1.53;1.40;;;3.70;95.20;;;;;;5060393;28;20482;-82
2021/04/26 03:32:53;;;;;;;1.60;1.50;;;3.60;94.90;;;;;;5052280;28;20526;-82
2021/04/26 03:35:22;;;;;;;1.50;1.40;;;3.60;94.40;;;;;;5052947;28;20472;-82
2021/04/26 03:37:50;;;;;;;1.73;1.63;;;3.60;94.50;;;;;;5050320;28;20458;-83
2021/04/26 03:40:19;;;;;;;1.60;1.50;;;3.60;94.80;;;;;;5049502;28;20503;-83
2021/04/26 03:42:47;;;;;;;1.50;1.40;;;3.50;95.60;;;;;;5051237;28;20475;-83
2021/04/26 03:45:15;;;;;;;1.53;1.40;;;3.50;95.50;;;;;;5054664;28;20471;-82
2021/04/26 03:47:42;;;;;;;1.50;1.40;;;3.50;95.40;;;;;;5048343;28;20462;-82
2021/04/26 03:50:10;;;;;;;1.57;1.47;;;3.50;95.00;;;;;;5047914;28;20479;-83
2021/04/26 03:52:37;;;;;;;1.50;1.37;;;3.50;95.00;;;;;;5049001;28;20464;-83
2021/04/26 03:55:04;;;;;;;1.60;1.50;;;3.50;94.90;;;;;;5063815;28;20512;-83
2021/04/26 03:57:31;;;;;;;1.50;1.30;;;3.50;95.20;;;;;;5051213;28;20466;-82
2021/04/26 03:59:57;;;;;;;1.60;1.47;;;3.40;95.10;;;;;;5055155;28;20551;-82
2021/04/26 04:02:26;;;;;;;1.60;1.50;;;3.40;95.20;;;;;;5060661;28;20482;-83
2021/04/26 04:04:52;;;;;;;1.60;1.40;;;3.40;95.10;;;;;;5050925;28;20466;-82
2021/04/26 04:07:20;;;;;;;1.50;1.40;;;3.40;94.90;;;;;;5054433;28;20673;-82
2021/04/26 04:09:46;;;;;;;1.50;1.40;;;3.40;95.00;;;;;;5051118;28;20486;-82
2021/04/26 04:12:13;;;;;;;1.50;1.40;;;3.40;95.20;;;;;;5053459;28;21369;-82
2021/04/26 04:14:39;;;;;;;1.50;1.40;;;3.30;95.60;;;;;;5055927;28;20471;-83
2021/04/26 04:17:06;;;;;;;1.60;1.40;;;3.30;95.20;;;;;;5057758;28;20476;-82
2021/04/26 04:19:33;;;;;;;1.57;1.40;;;3.30;95.00;;;;;;5054301;28;20495;-82
2021/04/26 04:21:59;;;;;;;1.60;1.47;;;3.30;95.20;;;;;;5053918;28;20505;-83
2021/04/26 04:24:26;;;;;;;1.57;1.40;;;3.30;95.70;;;;;;5054133;28;20482;-82
2021/04/26 04:26:53;;;;;;;1.60;1.50;;;3.30;94.90;;;;;;5045917;28;20455;-82
2021/04/26 04:29:20;;;;;;;1.60;1.50;;;3.20;95.00;;;;;;5045987;28;20504;-82
2021/04/26 04:31:46;;;;;;;1.50;1.40;;;3.20;95.10;;;;;;5055343;28;20458;-84
2021/04/26 04:34:12;;;;;;;1.60;1.50;;;3.20;95.80;;;;;;5054786;28;20474;-81
2021/04/26 04:36:39;;;;;;;1.60;1.47;;;3.20;96.00;;;;;;5052011;28;20459;-81
2021/04/26 04:39:05;;;;;;;1.63;1.53;;;3.20;95.80;;;;;;5050071;28;20578;-81
2021/04/26 04:41:36;;;;;;;1.50;1.40;;;3.20;96.20;;;;;;5057466;28;20479;-82
2021/04/26 04:44:03;;;;;;;1.60;1.50;;;3.20;95.90;;;;;;5055120;28;20566;-82
2021/04/26 04:46:30;;;;;;;1.60;1.47;;;3.20;94.90;;;;;;5048615;28;20473;-81
2021/04/26 04:48:57;;;;;;;1.53;1.40;;;3.20;96.10;;;;;;5051534;28;20479;-80
2021/04/26 04:51:23;;;;;;;1.53;1.40;;;3.20;95.70;;;;;;5044210;28;20527;-81
2021/04/26 04:53:50;;;;;;;1.50;1.40;;;3.30;96.10;;;;;;5054251;28;20557;-82
2021/04/26 04:56:16;;;;;;;1.57;1.40;;;3.30;95.50;;;;;;5052253;28;20462;-82
2021/04/26 04:58:43;;;;;;;1.53;1.43;;;3.30;95.00;;;;;;5054944;28;20827;-81
2021/04/26 05:01:10;;;;;;;1.60;1.40;;;3.30;95.70;;;;;;5050813;28;20550;-81
2021/04/26 05:03:37;;;;;;;1.50;1.40;;;3.30;95.00;;;;;;5060736;28;20471;-81
2021/04/26 05:06:04;;;;;;;1.60;1.50;;;3.40;95.00;;;;;;5049475;28;20522;-83
2021/04/26 05:08:30;;;;;;;1.50;1.40;;;3.40;95.40;;;;;;5041624;28;20471;-82
2021/04/26 05:10:57;;;;;;;1.50;1.33;;;3.40;96.10;;;;;;5038784;28;20483;-81
2021/04/26 05:13:23;;;;;;;1.60;1.50;;;3.50;95.70;;;;;;5046729;28;20654;-82
2021/04/26 05:15:51;;;;;;;1.50;1.40;;;3.50;95.20;;;;;;5048260;28;20463;-81
2021/04/26 05:18:17;;;;;;;1.53;1.40;;;3.60;95.90;;;;;;5047705;28;20769;-82
2021/04/26 05:20:43;;;;;;;1.57;1.40;;;3.70;95.30;;;;;;5052631;28;20482;-81
2021/04/26 05:23:11;;;;;;;1.50;1.30;;;3.80;95.30;;;;;;5055538;28;20478;-81
2021/04/26 05:25:37;;;;;;;1.57;1.40;;;3.90;95.40;;;;;;5050129;28;20976;-81
2021/04/26 05:28:04;;;;;;;1.50;1.30;;;4.10;95.60;;;;;;5042051;28;20961;-81
2021/04/26 05:30:31;;;;;;;1.53;1.40;;;4.30;96.40;;;;;;5046452;28;20969;-80
2021/04/26 05:32:58;;;;;;;1.53;1.40;;;4.50;95.80;;;;;;5048008;28;20509;-80
2021/04/26 05:35:25;;;;;;;1.50;1.40;;;4.90;95.00;;;;;;5047761;28;20526;-80
2021/04/26 05:37:51;;;;;;;1.50;1.40;;;5.20;93.30;;;;;;5044764;28;20458;-81
2021/04/26 05:40:18;;;;;;;1.50;1.30;;;5.50;92.70;;;;;;5051303;28;20523;-80
2021/04/26 05:42:44;;;;;;;1.53;1.33;;;5.80;90.30;;;;;;5048817;28;20570;-81
2021/04/26 05:45:12;;;;;;;1.53;1.30;;;6.00;89.80;;;;;;5039363;28;20521;-80
2021/04/26 05:47:39;;;;;;;1.50;1.30;;;6.20;88.30;;;;;;5036660;28;20558;-80
2021/04/26 05:50:07;;;;;;;1.50;1.30;;;6.50;87.80;;;;;;5047440;28;20514;-80
2021/04/26 05:52:33;;;;;;;1.50;1.30;;;6.70;85.40;;;;;;5041617;28;20459;-82
2021/04/26 05:54:59;;;;;;;1.50;1.30;;;6.90;83.10;;;;;;5046331;28;20519;-81
2021/04/26 05:57:26;;;;;;;1.53;1.30;;;7.00;84.90;;;;;;5049306;28;20463;-82
2021/04/26 05:59:52;;;;;;;1.50;1.20;;;7.30;84.70;;;;;;5046646;28;20491;-82
2021/04/26 06:02:19;;;;;;;1.50;1.20;;;7.50;82.70;;;;;;5044430;28;20483;-81
2021/04/26 06:04:45;;;;;;;1.53;1.20;;;7.80;81.50;;;;;;5042263;28;20455;-82
2021/04/26 06:07:12;;;;;;;1.50;1.20;;;8.00;81.90;;;;;;5055087;28;20502;-82
2021/04/26 06:09:39;;;;;;;1.50;1.30;;;8.30;80.80;;;;;;5047806;28;20474;-81
2021/04/26 06:12:06;;;;;;;1.50;1.20;;;8.60;80.20;;;;;;5045447;28;20455;-83
2021/04/26 06:14:32;;;;;;;1.53;1.30;;;8.60;77.80;;;;;;5038550;28;20515;-81
2021/04/26 06:16:59;;;;;;;1.50;1.30;;;8.70;78.30;;;;;;5047877;28;20459;-80
2021/04/26 06:19:25;;;;;;;1.50;1.20;;;8.90;77.50;;;;;;5044643;28;20470;-80
2021/04/26 06:21:52;;;;;;;1.50;1.10;;;9.00;77.10;;;;;;5043373;28;20522;-82
2021/04/26 06:24:19;;;;;;;1.53;1.30;;;9.00;77.10;;;;;;5050351;28;20868;-81
2021/04/26 06:26:45;;;;;;;1.57;1.20;;;9.20;77.00;;;;;;5043242;28;20462;-82
2021/04/26 06:29:12;;;;;;;1.50;1.10;;;9.40;75.80;;;;;;5046506;28;20874;-82
2021/04/26 06:31:38;;;;;;;1.50;1.10;;;9.60;76.30;;;;;;5039458;28;20768;-80
2021/04/26 06:34:05;;;;;;;1.50;1.10;;;9.90;75.40;;;;;;5049202;28;20470;-81
2021/04/26 06:36:31;;;;;;;1.50;1.10;;;10.10;74.30;;;;;;5043433;28;20969;-80
2021/04/26 06:38:58;;;;;;;1.50;1.10;;;10.20;72.40;;;;;;5045267;28;20478;-78
2021/04/26 06:41:25;;;;;;;1.50;1.10;;;10.20;72.80;;;;;;5051572;28;20953;-79
2021/04/26 06:43:51;;;;;;;1.50;1.10;;;10.40;71.80;;;;;;5042862;28;20505;-78
2021/04/26 06:46:17;;;;;;;1.60;1.50;;;10.50;70.90;;;;;;5035936;28;20823;-79
2021/04/26 06:48:44;;;;;;;1.50;1.10;;;10.60;71.50;;;;;;5043305;28;20462;-83
2021/04/26 06:51:10;;;;;;;1.50;1.13;;;10.70;70.30;;;;;;5046284;28;20463;-80
2021/04/26 06:53:37;;;;;;;1.50;1.07;;;10.80;69.80;;;;;;5048402;28;20494;-81
2021/04/26 06:56:03;;;;;;;1.50;1.00;;;10.90;69.50;;;;;;5043647;28;20487;-80
2021/04/26 06:58:31;;;;;;;1.50;1.07;;;10.80;69.30;;;;;;5042042;28;20495;-82
2021/04/26 07:00:57;;;;;;;1.50;1.10;;;10.90;69.20;;;;;;5041042;28;20482;-83
2021/04/26 07:03:23;;;;;;;1.50;1.10;;;11.00;68.60;;;;;;5039004;28;20491;-82
2021/04/26 07:05:50;;;;;;;1.50;1.03;;;11.10;68.10;;;;;;5053322;28;20466;-78
2021/04/26 07:08:16;;;;;;;1.50;1.00;;;11.30;68.50;;;;;;5046804;28;20464;-80
2021/04/26 07:10:43;;;;;;;1.50;1.00;;;11.60;68.00;;;;;;5043843;28;20482;-79
2021/04/26 07:13:09;;;;;;;5.50;3.00;;;11.90;67.50;;;;;;5036369;28;20473;-78
2021/04/26 07:15:36;;;;;;;1.50;1.00;;;12.00;66.80;;;;;;5042523;28;20469;-82
2021/04/26 07:18:03;;;;;;;1.50;1.00;;;12.20;67.30;;;;;;5039049;28;21087;-80
2021/04/26 07:20:29;;;;;;;1.50;1.00;;;12.40;66.70;;;;;;5042007;28;20518;-79
2021/04/26 07:22:56;;;;;;;1.50;1.00;;;12.40;66.40;;;;;;5043165;28;20910;-82
2021/04/26 07:25:22;;;;;;;1.50;1.00;;;12.50;66.70;;;;;;5042912;28;20463;-79
2021/04/26 07:27:48;;;;;;;1.50;1.00;;;12.70;65.90;;;;;;5046935;28;20462;-78
2021/04/26 07:30:16;;;;;;;1.50;1.00;;;12.80;64.30;;;;;;5042494;28;20505;-79
2021/04/26 07:32:44;;;;;;;1.50;1.00;;;13.00;64.90;;;;;;5039046;28;20468;-80
2021/04/26 07:35:14;;;;;;;1.50;1.10;;;13.10;63.00;;;;;;5052155;28;20462;-81
2021/04/26 07:37:41;;;;;;;1.50;1.00;;;13.10;62.50;;;;;;5047909;28;20459;-81
2021/04/26 07:40:10;;;;;;;1.50;1.00;;;13.30;62.10;;;;;;5043118;28;20572;-82
2021/04/26 07:42:36;;;;;;;1.50;1.00;;;13.30;61.60;;;;;;5048154;28;20486;-81
2021/04/26 07:45:04;;;;;;;1.60;1.20;;;13.30;61.60;;;;;;5048272;28;20463;-80
2021/04/26 07:47:31;;;;;;;1.50;1.00;;;13.30;61.50;;;;;;5044352;28;20459;-80
2021/04/26 07:49:58;;;;;;;1.50;1.10;;;13.60;61.50;;;;;;5057836;28;20490;-80
2021/04/26 07:52:24;;;;;;;1.50;1.00;;;13.60;60.10;;;;;;5050182;28;20464;-81
2021/04/26 07:54:51;;;;;;;1.50;1.00;;;13.70;58.20;;;;;;5050591;28;20539;-82
2021/04/26 07:57:17;;;;;;;1.43;1.00;;;13.70;58.60;;;;;;5045939;28;20929;-81
2021/04/26 07:59:44;;;;;;;1.50;1.00;;;13.60;57.40;;;;;;5058172;28;20804;-81
2021/04/26 08:02:10;;;;;;;1.50;1.00;;;13.50;57.10;;;;;;5044342;28;20462;-80
2021/04/26 08:04:36;;;;;;;1.50;0.93;;;13.70;57.20;;;;;;5040628;28;20463;-81
2021/04/26 08:07:04;;;;;;;1.50;1.00;;;13.80;56.00;;;;;;5039314;28;20905;-86
2021/04/26 08:09:31;;;;;;;1.50;1.00;;;13.80;57.00;;;;;;5055081;28;20568;-83
2021/04/26 08:11:59;;;;;;;1.50;1.00;;;13.80;56.00;;;;;;5057876;28;20526;-82
2021/04/26 08:14:26;;;;;;;1.50;0.97;;;13.90;57.00;;;;;;5056832;28;20461;-82
2021/04/26 08:16:52;;;;;;;1.50;1.00;;;14.00;57.10;;;;;;5059006;28;20522;-84
2021/04/26 08:19:18;;;;;;;1.50;1.00;;;13.90;55.50;;;;;;5051409;28;20498;-80
2021/04/26 08:21:46;;;;;;;1.60;1.10;;;13.80;56.40;;;;;;5042792;28;20467;-83
2021/04/26 08:24:13;;;;;;;2.23;2.03;;;13.90;56.60;;;;;;5058762;28;20486;-80
2021/04/26 08:26:39;;;;;;;1.50;0.90;;;14.00;55.50;;;;;;5050916;28;20485;-82
2021/04/26 08:29:06;;;;;;;1.50;1.00;;;14.00;55.10;;;;;;5044065;28;20502;-82
2021/04/26 08:31:33;;;;;;;1.50;1.00;;;14.00;55.60;;;;;;5044516;28;20473;-82
2021/04/26 08:34:00;;;;;;;1.50;0.93;;;14.10;56.70;;;;;;5039182;28;20733;-82
2021/04/26 08:36:26;;;;;;;1.50;0.90;;;14.20;55.60;;;;;;5046100;28;20463;-82
2021/04/26 08:38:53;;;;;;;1.50;1.00;;;14.30;55.90;;;;;;5050074;28;20566;-83
2021/04/26 08:41:20;;;;;;;1.50;1.00;;;14.40;55.60;;;;;;5039037;28;20474;-80
2021/04/26 08:43:47;;;;;;;1.50;0.90;;;14.50;55.90;;;;;;5049626;28;20489;-83
2021/04/26 08:46:14;;;;;;;1.50;1.00;;;14.60;54.90;;;;;;5044631;28;20470;-80
2021/04/26 08:48:41;;;;;;;1.43;0.90;;;14.40;55.50;;;;;;5046793;28;20461;-79
2021/04/26 08:51:07;;;;;;;1.47;0.90;;;14.50;56.10;;;;;;5037973;28;20474;-84
2021/04/26 08:53:34;;;;;;;1.50;1.00;;;14.70;55.20;;;;;;5048153;28;20538;-83
2021/04/26 08:56:01;;;;;;;1.50;0.90;;;14.90;56.20;;;;;;5051193;28;20462;-83
2021/04/26 08:58:29;;;;;;;1.47;0.90;;;15.00;55.30;;;;;;5041314;28;20463;-81
2021/04/26 09:00:55;;;;;;;1.50;0.90;;;15.10;54.00;;;;;;5048900;28;20482;-80
2021/04/26 09:03:31;;;;;;;1.47;1.00;;;15.00;54.70;;;;;;5055051;28;20561;-82
2021/04/26 09:05:57;;;;;;;1.50;1.00;;;15.00;55.20;;;;;;5054066;28;20470;-82
2021/04/26 09:08:24;;;;;;;1.47;0.90;;;15.10;55.40;;;;;;5057921;28;20471;-79
2021/04/26 09:10:52;;;;;;;1.50;1.00;;;15.20;55.70;;;;;;5056829;28;20493;-78
2021/04/26 09:13:30;;;;;;;1.47;1.00;;;15.20;55.00;;;;;;5048541;28;20479;-80
2021/04/26 09:15:58;;;;;;;1.47;0.90;;;15.30;55.40;;;;;;5043177;28;20548;-81
2021/04/26 09:18:51;;;;;;;1.50;1.00;;;15.20;54.80;;;;;;5039141;28;20745;-80
2021/04/26 09:21:23;;;;;;;1.50;0.90;;;15.50;55.40;;;;;;5056230;28;20471;-80
2021/04/26 09:24:16;;;;;;;1.47;0.90;;;15.50;55.80;;;;;;5046815;28;20505;-79
2021/04/26 09:26:45;;;;;;;1.50;0.90;;;15.70;55.00;;;;;;5042919;28;20455;-81
2021/04/26 09:29:21;;;;;;;1.47;0.90;;;15.90;56.40;;;;;;5037986;28;20497;-81
2021/04/26 09:32:09;;;;;;;1.50;1.00;;;16.00;54.20;;;;;;5047747;28;20459;-79
2021/04/26 09:34:38;;;;;;;1.47;0.90;;;16.10;54.40;;;;;;5048148;28;20459;-79
2021/04/26 09:37:10;;;;;;;1.50;0.93;;;16.30;54.80;;;;;;5042073;28;20455;-80
2021/04/26 09:39:39;;;;;;;1.40;0.90;;;16.50;55.60;;;;;;5046181;28;20485;-80
2021/04/26 09:42:05;;;;;;;1.50;0.90;;;16.70;54.10;;;;;;5041694;28;20533;-81
2021/04/26 09:44:33;;;;;;;1.47;0.90;;;16.90;53.30;;;;;;5041472;28;20582;-80
2021/04/26 09:46:59;;;;;;;1.43;0.90;;;17.10;54.10;;;;;;5044310;28;20472;-81
2021/04/26 09:49:27;;;;;;;1.47;0.90;;;17.20;53.60;;;;;;5045046;28;20533;-80
2021/04/26 09:51:55;;;;;;;1.43;0.90;;;17.20;52.70;;;;;;5038236;28;20498;-81
2021/04/26 09:54:35;;;;;;;1.47;0.90;;;17.20;54.20;;;;;;5050725;28;20545;-80
2021/04/26 09:57:02;;;;;;;1.50;1.00;;;17.30;53.40;;;;;;5040027;28;20474;-80
2021/04/26 09:59:29;;;;;;;1.50;0.90;;;17.40;53.10;;;;;;5044616;28;20702;-82
2021/04/26 10:01:56;;;;;;;1.47;0.90;;;17.60;52.80;;;;;;5039093;28;20459;-81
2021/04/26 10:04:23;;;;;;;1.50;0.90;;;17.60;53.90;;;;;;5034371;28;20636;-82
2021/04/26 10:06:49;;;;;;;1.50;0.90;;;17.80;53.20;;;;;;5042871;28;20474;-85
2021/04/26 10:09:16;;;;;;;1.47;0.90;;;17.70;51.40;;;;;;5047229;28;21047;-80
2021/04/26 10:11:43;;;;;;;1.47;0.90;;;17.50;51.60;;;;;;5039121;28;20462;-81
2021/04/26 10:14:12;;;;;;;1.50;1.00;;;17.50;52.50;;;;;;5036677;28;20844;-81
2021/04/26 10:16:43;;;;;;;1.43;0.90;;;17.50;53.80;;;;;;5040840;28;20467;-81
2021/04/26 10:19:13;;;;;;;1.50;0.90;;;17.70;52.90;;;;;;5053205;28;20487;-82
2021/04/26 10:21:41;;;;;;;1.50;0.90;;;17.60;52.00;;;;;;5043710;28;20455;-84
2021/04/26 10:24:18;;;;;;;1.50;1.00;;;17.40;50.50;;;;;;5050184;28;20975;-81
2021/04/26 10:26:50;;;;;;;1.50;0.90;;;17.40;51.90;;;;;;5047559;28;20496;-81
2021/04/26 10:29:23;;;;;;;1.50;0.90;;;17.50;53.10;;;;;;5038443;28;20489;-81
2021/04/26 10:32:10;;;;;;;1.47;0.90;;;17.70;54.20;;;;;;5037073;28;20467;-80
2021/04/26 10:35:09;;;;;;;1.50;0.90;;;18.00;52.60;;;;;;5038987;28;20459;-80
2021/04/26 10:37:36;;;;;;;1.50;0.90;;;18.30;50.80;;;;;;5044529;28;20459;-81
2021/04/26 10:40:09;;;;;;;1.47;0.90;;;18.40;52.40;;;;;;5038259;28;20480;-84
2021/04/26 10:42:37;;;;;;;1.43;0.90;;;18.50;50.10;;;;;;5035286;28;20493;-82
2021/04/26 10:45:05;;;;;;;1.50;0.90;;;18.40;50.40;;;;;;5046488;28;20468;-83
2021/04/26 10:47:34;;;;;;;1.40;0.90;;;18.40;49.80;;;;;;5051400;28;20469;-83
2021/04/26 10:50:34;;;;;;;1.50;0.90;;;18.30;50.00;;;;;;5047262;28;20509;-83
2021/04/26 10:53:04;;;;;;;1.47;0.90;;;18.30;49.80;;;;;;5052832;28;20463;-80
2021/04/26 10:55:55;;;;;;;1.50;0.90;;;18.30;51.10;;;;;;5043851;28;20475;-80
2021/04/26 10:58:39;;;;;;;1.50;0.90;;;18.50;52.50;;;;;;5048174;28;20514;-82
2021/04/26 11:01:07;;;;;;;1.47;0.90;;;18.70;51.00;;;;;;5044409;28;20466;-81
2021/04/26 11:03:41;;;;;;;1.47;0.83;;;18.60;52.00;;;;;;5044400;28;20537;-83
2021/04/26 11:06:13;;;;;;;1.50;0.90;;;18.80;51.30;;;;;;5040550;28;20530;-81
2021/04/26 11:08:43;;;;;;;1.47;1.00;;;19.00;50.80;;;;;;5049492;28;20477;-80
2021/04/26 11:11:13;;;;;;;1.50;1.00;;;18.90;51.90;;;;;;5053746;28;20553;-80
2021/04/26 11:13:42;;;;;;;1.50;1.00;;;18.60;49.60;;;;;;5048400;28;20485;-81
2021/04/26 11:16:11;;;;;;;1.47;0.90;;;18.60;52.20;;;;;;5044824;28;20481;-79
2021/04/26 11:18:47;;;;;;;1.50;0.90;;;18.70;51.80;;;;;;5058354;28;20561;-85
2021/04/26 11:21:53;;;;;;;1.50;0.90;;;18.50;49.40;;;;;;5053107;28;20547;-80
2021/04/26 11:24:59;;;;;;;1.40;0.90;;;18.40;51.10;;;;;;5051548;28;20455;-80
2021/04/26 11:27:25;;;;;;;1.50;1.00;;;18.70;51.50;;;;;;5048808;28;20468;-79
2021/04/26 11:30:15;;;;;;;1.50;0.90;;;19.00;52.10;;;;;;5047509;28;20495;-80
2021/04/26 11:33:09;;;;;;;1.50;0.90;;;19.20;47.90;;;;;;5038801;28;20467;-81
2021/04/26 11:35:57;;;;;;;1.50;1.00;;;19.30;47.60;;;;;;5035949;28;20478;-82
2021/04/26 11:38:25;;;;;;;1.50;0.90;;;19.10;49.50;;;;;;5046276;28;20985;-80
2021/04/26 11:40:53;;;;;;;1.50;0.90;;;19.10;48.40;;;;;;5046232;28;20505;-80
2021/04/26 11:43:20;;;;;;;1.50;0.90;;;19.10;48.80;;;;;;5049443;28;20454;-80
2021/04/26 11:45:47;;;;;;;1.47;0.90;;;18.90;49.40;;;;;;5042978;28;20483;-79
2021/04/26 11:48:21;;;;;;;1.47;0.90;;;19.00;49.80;;;;;;5042933;28;20701;-79
2021/04/26 11:50:48;;;;;;;1.50;0.90;;;19.10;48.70;;;;;;5045784;28;20573;-81
2021/04/26 11:53:25;;;;;;;1.50;0.90;;;19.40;50.50;;;;;;5048941;28;20506;-84
2021/04/26 11:55:51;;;;;;;1.43;0.90;;;19.60;50.20;;;;;;5046903;28;20466;-82
2021/04/26 11:58:24;;;;;;;1.43;0.83;;;19.70;50.60;;;;;;5043128;28;20806;-81
2021/04/26 12:00:50;;;;;;;1.50;0.90;;;19.70;48.70;;;;;;5038782;28;20490;-80
2021/04/26 12:03:17;;;;;;;1.47;0.90;;;19.80;48.60;;;;;;5038771;28;20953;-81
2021/04/26 12:05:43;;;;;;;1.50;0.90;;;19.80;49.50;;;;;;5050536;28;20462;-80
2021/04/26 12:08:09;;;;;;;1.50;0.83;;;19.90;50.10;;;;;;5050138;28;20462;-79
2021/04/26 12:10:40;;;;;;;1.40;0.90;;;20.10;49.70;;;;;;5039694;28;20490;-80
2021/04/26 12:13:07;;;;;;;1.50;1.20;;;20.30;50.70;;;;;;5057862;28;20478;-80
2021/04/26 12:15:35;;;;;;;1.50;0.90;;;20.50;48.00;;;;;;5058070;28;21024;-80
2021/04/26 12:18:03;;;;;;;1.47;0.90;;;20.70;51.00;;;;;;5047376;28;21083;-80
2021/04/26 12:20:31;;;;;;;1.50;0.90;;;20.80;49.00;;;;;;5037993;28;20494;-83
2021/04/26 12:22:59;;;;;;;1.50;1.20;;;20.90;49.10;;;;;;5042186;28;20961;-80
2021/04/26 12:25:28;;;;;;;1.50;0.90;;;20.70;49.80;;;;;;5046567;28;20472;-80
2021/04/26 12:27:59;;;;;;;1.50;0.90;;;20.60;50.50;;;;;;5042057;28;20485;-81
2021/04/26 12:30:27;;;;;;;1.50;0.90;;;20.60;49.60;;;;;;5043887;28;20494;-81
2021/04/26 12:32:54;;;;;;;1.50;0.90;;;20.70;48.20;;;;;;5046720;28;20486;-82
2021/04/26 12:35:27;;;;;;;1.47;0.90;;;20.80;47.50;;;;;;5040865;28;20850;-81
2021/04/26 12:37:56;;;;;;;1.50;0.90;;;21.00;49.60;;;;;;5041513;28;20462;-82
2021/04/26 12:40:25;;;;;;;1.47;0.90;;;21.10;47.70;;;;;;5047225;28;21023;-82
2021/04/26 12:43:03;;;;;;;1.50;0.90;;;20.90;47.20;;;;;;5039003;28;20573;-83
2021/04/26 12:45:31;;;;;;;1.40;0.90;;;20.80;49.60;;;;;;5036744;28;20884;-83
2021/04/26 12:47:59;;;;;;;1.50;1.00;;;20.70;48.50;;;;;;5041172;28;20559;-81
2021/04/26 12:50:30;;;;;;;1.50;0.90;;;20.60;46.90;;;;;;5041437;28;20493;-82
2021/04/26 12:53:14;;;;;;;1.50;0.90;;;20.40;47.50;;;;;;5049807;28;21039;-82
2021/04/26 12:55:44;;;;;;;1.40;0.90;;;20.20;49.20;;;;;;5039928;28;20463;-83
2021/04/26 12:58:14;;;;;;;1.50;0.90;;;20.40;48.70;;;;;;5035879;28;20768;-81
2021/04/26 13:00:43;;;;;;;1.50;0.90;;;20.40;47.00;;;;;;5038513;28;20974;-82
2021/04/26 13:03:30;;;;;;;1.47;0.90;;;20.20;47.30;;;;;;5041600;28;20964;-81